Time;durP1;ratioP1;P1;durP2;ratioP2;P2;SDS_P1;SDS_P2;PMS_P1;PMS_P2;Temp;Humidity;BMP_temperature;BMP_pressure;BME280_temperature;BME280_humidity;BME280_pressure;Samples;Min_cycle;Max_cycle;Signal;HPM_P1;HPM_P2
2022/01/30 00:01:35;;;;;;;0.32;0.32;;;;;;;;;;5084022;28;20023;-69
2022/01/30 00:04:01;;;;;;;0.40;0.40;;;;;;;;;;5082206;28;20082;-68
2022/01/30 00:06:26;;;;;;;0.95;0.95;;;;;;;;;;5048468;28;20035;-69
2022/01/30 00:08:54;;;;;;;1.73;1.63;;;;;;;;;;5064635;28;20050;-68
2022/01/30 00:11:26;;;;;;;0.10;0.10;;;;;;;;;;5096761;28;20058;-69
2022/01/30 00:13:52;;;;;;;0.65;0.65;;;;;;;;;;5083538;28;20074;-68
2022/01/30 00:16:20;;;;;;;0.20;0.20;;;;;;;;;;5073013;28;20032;-68
2022/01/30 00:19:04;;;;;;;4.22;3.13;;;;;;;;;;5083783;28;20020;-68
2022/01/30 00:21:36;;;;;;;2.00;1.88;;;;;;;;;;5081161;28;20487;-68
2022/01/30 00:24:09;;;;;;;1.25;0.57;;;;;;;;;;5084076;28;20032;-69
2022/01/30 00:26:37;;;;;;;8.13;4.47;;;;;;;;;;5082115;28;20101;-68
2022/01/30 00:29:03;;;;;;;0.85;0.85;;;;;;;;;;5048600;28;20028;-68
2022/01/30 00:31:29;;;;;;;3.58;1.83;;;;;;;;;;5075341;28;20506;-68
2022/01/30 00:33:55;;;;;;;7.28;3.38;;;;;;;;;;5054989;28;20033;-67
2022/01/30 00:36:20;;;;;;;3.85;1.13;;;;;;;;;;5088089;28;20039;-67
2022/01/30 00:38:46;;;;;;;0.40;0.40;;;;;;;;;;5072720;28;20032;-68
2022/01/30 00:41:12;;;;;;;2.05;1.08;;;;;;;;;;5038015;28;20451;-68
2022/01/30 00:43:38;;;;;;;0.55;0.52;;;;;;;;;;5072648;28;20048;-68
2022/01/30 00:46:03;;;;;;;1.65;0.85;;;;;;;;;;5054346;28;20045;-68
2022/01/30 00:48:29;;;;;;;1.45;1.23;;;;;;;;;;5054873;28;20032;-69
2022/01/30 00:50:55;;;;;;;0.55;0.55;;;;;;;;;;5088096;28;20041;-68
2022/01/30 00:53:20;;;;;;;0.90;0.88;;;;;;;;;;5054527;28;20039;-68
2022/01/30 00:55:46;;;;;;;0.30;0.30;;;;;;;;;;5072341;28;20123;-69
2022/01/30 00:58:12;;;;;;;0.65;0.65;;;;;;;;;;5087776;28;20119;-68
2022/01/30 01:00:38;;;;;;;0.55;0.55;;;;;;;;;;5054410;28;20032;-67
2022/01/30 01:03:04;;;;;;;0.13;0.13;;;;;;;;;;5054405;28;20162;-69
2022/01/30 01:05:31;;;;;;;0.22;0.22;;;;;;;;;;5076411;28;20056;-68
2022/01/30 01:08:00;;;;;;;1.40;1.33;;;;;;;;;;5092790;28;20027;-69
2022/01/30 01:23:43;;;;;;;0.20;0.20;;;;;;;;;;5092354;28;20494;-68
2022/01/30 01:26:09;;;;;;;0.10;0.10;;;;;;;;;;5074509;28;20047;-68
2022/01/30 01:28:36;;;;;;;0.32;0.32;;;;;;;;;;5092281;28;20038;-68
2022/01/30 01:31:02;;;;;;;0.10;0.10;;;;;;;;;;5074388;28;20118;-68
2022/01/30 01:33:38;;;;;;;0.35;0.35;;;;;;;;;;5091965;28;20041;-68
2022/01/30 01:36:04;;;;;;;2.33;1.73;;;;;;;;;;5057189;28;20494;-69
2022/01/30 01:38:29;;;;;;;2.20;1.33;;;;;;;;;;5092201;28;20024;-69
2022/01/30 01:40:55;;;;;;;0.55;0.30;;;;;;;;;;5073946;28;20039;-69
2022/01/30 01:43:22;;;;;;;1.52;1.42;;;;;;;;;;5092023;28;20028;-68
2022/01/30 01:45:50;;;;;;;1.40;0.55;;;;;;;;;;5091934;28;20028;-70
2022/01/30 01:48:16;;;;;;;0.10;0.10;;;;;;;;;;5073556;28;20060;-70
2022/01/30 01:50:46;;;;;;;1.67;1.13;;;;;;;;;;5092070;28;20040;-69
2022/01/30 01:53:13;;;;;;;1.40;1.30;;;;;;;;;;5073816;28;20127;-68
2022/01/30 01:55:40;;;;;;;0.63;0.63;;;;;;;;;;5091950;28;20119;-69
2022/01/30 01:58:15;;;;;;;0.60;0.60;;;;;;;;;;5076811;28;20031;-69
2022/01/30 02:00:59;;;;;;;2.88;1.58;;;;;;;;;;5063049;28;20126;-70
2022/01/30 02:03:26;;;;;;;1.17;0.93;;;;;;;;;;5077356;28;20390;-69
2022/01/30 02:05:56;;;;;;;0.17;0.17;;;;;;;;;;5077379;28;20040;-69
2022/01/30 02:08:29;;;;;;;3.95;1.80;;;;;;;;;;5060651;28;20059;-69
2022/01/30 02:27:19;;;;;;;3.60;2.83;;;;;;;;;;5095175;28;20448;-69
2022/01/30 02:29:45;;;;;;;0.15;0.15;;;;;;;;;;5094922;28;20036;-69
2022/01/30 02:32:11;;;;;;;4.18;1.50;;;;;;;;;;5094747;28;20122;-67
2022/01/30 02:34:36;;;;;;;1.08;0.68;;;;;;;;;;5076977;28;20386;-68
2022/01/30 02:37:02;;;;;;;2.90;1.67;;;;;;;;;;5076645;28;20119;-69
2022/01/30 02:39:28;;;;;;;0.10;0.10;;;;;;;;;;5076975;28;20035;-68
2022/01/30 02:41:54;;;;;;;0.10;0.10;;;;;;;;;;5095104;28;20032;-68
2022/01/30 02:44:47;;;;;;;2.35;1.77;;;;;;;;;;5076492;28;20024;-69
2022/01/30 02:47:20;;;;;;;4.40;2.38;;;;;;;;;;5076647;28;20043;-69
2022/01/30 02:50:08;;;;;;;10.43;4.30;;;;;;;;;;5076723;28;20093;-68
2022/01/30 02:52:32;;;;;;;5.65;2.95;;;;;;;;;;5076476;28;20556;-68
2022/01/30 02:54:58;;;;;;;1.17;1.02;;;;;;;;;;5076329;28;20024;-69
2022/01/30 02:57:23;;;;;;;3.35;1.42;;;;;;;;;;5076317;28;20032;-69
2022/01/30 02:59:50;;;;;;;5.38;1.05;;;;;;;;;;5059697;28;20085;-69
2022/01/30 03:02:16;;;;;;;2.17;0.77;;;;;;;;;;5094465;28;20396;-69
2022/01/30 03:04:41;;;;;;;2.47;1.92;;;;;;;;;;5076222;28;20031;-69
2022/01/30 03:07:07;;;;;;;4.93;3.40;;;;;;;;;;5093970;28;20032;-69
2022/01/30 03:09:38;;;;;;;0.10;0.10;;;;;;;;;;5060058;28;20119;-69
2022/01/30 03:12:05;;;;;;;2.13;1.27;;;;;;;;;;5059640;28;20047;-69
2022/01/30 03:14:31;;;;;;;2.65;1.80;;;;;;;;;;5059384;28;20032;-69
2022/01/30 03:16:57;;;;;;;3.95;2.63;;;;;;;;;;5059460;28;20040;-70
2022/01/30 03:19:22;;;;;;;4.03;2.63;;;;;;;;;;5076130;28;20479;-70
2022/01/30 03:21:48;;;;;;;9.13;5.30;;;;;;;;;;5076090;28;20429;-70
2022/01/30 03:24:14;;;;;;;1.70;1.58;;;;;;;;;;5059182;28;20035;-70
2022/01/30 03:26:41;;;;;;;0.38;0.38;;;;;;;;;;5059464;28;20081;-70
2022/01/30 03:29:26;;;;;;;5.63;3.17;;;;;;;;;;5075993;28;20534;-69
2022/01/30 03:31:51;;;;;;;0.10;0.10;;;;;;;;;;5094231;28;20032;-70
2022/01/30 03:34:17;;;;;;;0.47;0.43;;;;;;;;;;5059142;28;20036;-70
2022/01/30 03:36:50;;;;;;;0.10;0.10;;;;;;;;;;5075640;28;20028;-69
2022/01/30 03:39:16;;;;;;;6.85;4.68;;;;;;;;;;5059256;28;20036;-70
2022/01/30 03:41:42;;;;;;;2.47;1.98;;;;;;;;;;5059169;28;20504;-71
2022/01/30 03:44:12;;;;;;;0.73;0.73;;;;;;;;;;5059771;28;20535;-69
2022/01/30 03:46:38;;;;;;;0.47;0.47;;;;;;;;;;5059025;28;20035;-69
2022/01/30 03:49:04;;;;;;;2.92;2.53;;;;;;;;;;5075573;28;20483;-70
2022/01/30 03:51:35;;;;;;;2.03;1.88;;;;;;;;;;5059538;28;20470;-70
2022/01/30 03:54:13;;;;;;;1.83;1.27;;;;;;;;;;5074602;28;20627;-69
2022/01/30 03:56:39;;;;;;;1.23;1.13;;;;;;;;;;5075221;28;20118;-70
2022/01/30 03:59:04;;;;;;;0.77;0.63;;;;;;;;;;5075572;28;20048;-68
2022/01/30 04:01:31;;;;;;;1.48;1.02;;;;;;;;;;5058832;28;20028;-69
2022/01/30 04:03:57;;;;;;;1.27;1.08;;;;;;;;;;5087703;28;20039;-69
2022/01/30 04:06:23;;;;;;;0.20;0.20;;;;;;;;;;5054909;28;20036;-69
2022/01/30 04:08:50;;;;;;;0.40;0.40;;;;;;;;;;5071452;28;20043;-70
2022/01/30 04:11:34;;;;;;;0.20;0.20;;;;;;;;;;5057370;28;20506;-70
2022/01/30 04:14:21;;;;;;;0.85;0.85;;;;;;;;;;5071233;28;20036;-70
2022/01/30 04:17:18;;;;;;;2.53;2.17;;;;;;;;;;5062795;28;20078;-69
2022/01/30 04:20:08;;;;;;;2.28;1.02;;;;;;;;;;5070710;28;20474;-69
2022/01/30 04:23:09;;;;;;;1.13;0.80;;;;;;;;;;5026869;28;20033;-68
2022/01/30 04:26:00;;;;;;;0.55;0.55;;;;;;;;;;5082259;28;20554;-68
2022/01/30 04:28:44;;;;;;;0.10;0.10;;;;;;;;;;5088994;28;20043;-70
2022/01/30 04:31:13;;;;;;;0.63;0.63;;;;;;;;;;5071320;28;20036;-69
2022/01/30 04:34:02;;;;;;;1.73;0.93;;;;;;;;;;5071400;28;20085;-68
2022/01/30 04:36:56;;;;;;;2.97;1.23;;;;;;;;;;5089430;28;20118;-69
2022/01/30 04:58:17;;;;;;;0.98;0.90;;;;;;;;;;5089201;28;20044;-68
2022/01/30 05:01:39;;;;;;;0.35;0.30;;;;;;;;;;5070251;28;20623;-69
2022/01/30 05:04:23;;;;;;;0.40;0.38;;;;;;;;;;5088149;28;20098;-68
2022/01/30 05:09:51;;;;;;;5.95;3.72;;;;;;;;;;5088878;28;20060;-67
2022/01/30 05:12:55;;;;;;;0.30;0.30;;;;;;;;;;5043117;28;20055;-67
2022/01/30 05:15:21;;;;;;;0.35;0.35;;;;;;;;;;5088330;28;20110;-67
2022/01/30 05:18:20;;;;;;;0.20;0.20;;;;;;;;;;5042000;28;20051;-67
2022/01/30 05:21:06;;;;;;;0.25;0.25;;;;;;;;;;5081185;28;20060;-68
2022/01/30 05:23:46;;;;;;;;;;;;;;;;;;5088877;28;20122;-68
2022/01/30 05:26:20;;;;;;;0.60;0.60;;;;;;;;;;5070306;28;19912;-67
2022/01/30 05:29:13;;;;;;;0.30;0.30;;;;;;;;;;5071973;28;20040;-68
2022/01/30 05:31:51;;;;;;;1.02;0.80;;;;;;;;;;5106484;28;20044;-68
2022/01/30 05:34:40;;;;;;;0.82;0.75;;;;;;;;;;5086519;28;20040;-68
2022/01/30 05:37:31;;;;;;;0.30;0.30;;;;;;;;;;5073868;28;20066;-66
2022/01/30 05:40:16;;;;;;;0.20;0.20;;;;;;;;;;5091845;28;20038;-68
2022/01/30 05:42:50;;;;;;;0.10;0.10;;;;;;;;;;5073510;28;20064;-68
2022/01/30 05:45:42;;;;;;;0.60;0.60;;;;;;;;;;5076458;28;20077;-68
2022/01/30 05:48:28;;;;;;;2.05;1.10;;;;;;;;;;5076213;28;20087;-68
2022/01/30 05:51:05;;;;;;;0.20;0.20;;;;;;;;;;5091339;28;20044;-68
2022/01/30 05:53:49;;;;;;;0.20;0.20;;;;;;;;;;5091977;28;20024;-68
2022/01/30 05:56:17;;;;;;;0.10;0.10;;;;;;;;;;5057266;28;20379;-68
2022/01/30 05:58:43;;;;;;;0.10;0.10;;;;;;;;;;5091541;28;20031;-69
2022/01/30 06:01:38;;;;;;;0.10;0.10;;;;;;;;;;5060347;28;20040;-68
2022/01/30 06:04:13;;;;;;;0.10;0.10;;;;;;;;;;5058049;28;20024;-69
2022/01/30 06:06:48;;;;;;;0.10;0.10;;;;;;;;;;5073296;28;20398;-70
2022/01/30 06:11:42;;;;;;;0.10;0.10;;;;;;;;;;5073404;28;20050;-69
2022/01/30 06:14:07;;;;;;;0.15;0.15;;;;;;;;;;5091326;28;20023;-69
2022/01/30 06:16:33;;;;;;;3.42;3.13;;;;;;;;;;5090960;28;20082;-68
2022/01/30 06:19:06;;;;;;;0.10;0.10;;;;;;;;;;5073115;28;20525;-69
2022/01/30 06:21:51;;;;;;;0.10;0.10;;;;;;;;;;5075877;28;20403;-68
2022/01/30 06:24:35;;;;;;;0.10;0.10;;;;;;;;;;5090956;28;20050;-68
2022/01/30 06:27:25;;;;;;;0.35;0.35;;;;;;;;;;5059677;28;20126;-68
2022/01/30 06:30:21;;;;;;;0.90;0.50;;;;;;;;;;5090844;28;20101;-68
2022/01/30 06:33:05;;;;;;;0.10;0.10;;;;;;;;;;5091310;28;20051;-68
2022/01/30 06:35:49;;;;;;;0.25;0.25;;;;;;;;;;5075637;28;20510;-68
2022/01/30 06:38:26;;;;;;;0.10;0.10;;;;;;;;;;5072729;28;20372;-68
2022/01/30 06:41:17;;;;;;;0.10;0.10;;;;;;;;;;5059422;28;20387;-68
2022/01/30 06:44:01;;;;;;;0.10;0.10;;;;;;;;;;5090165;28;20055;-68
2022/01/30 06:46:45;;;;;;;0.10;0.10;;;;;;;;;;5075575;28;20101;-68
2022/01/30 06:49:29;;;;;;;0.10;0.10;;;;;;;;;;5091141;28;20054;-68
2022/01/30 06:52:14;;;;;;;0.20;0.20;;;;;;;;;;5075305;28;20502;-68
2022/01/30 06:54:58;;;;;;;0.10;0.10;;;;;;;;;;5090649;28;20399;-69
2022/01/30 06:57:46;;;;;;;0.13;0.13;;;;;;;;;;5075463;28;20075;-68
2022/01/30 07:00:35;;;;;;;0.35;0.35;;;;;;;;;;5079639;28;20071;-67
2022/01/30 07:03:18;;;;;;;0.10;0.10;;;;;;;;;;5075542;28;20047;-68
2022/01/30 07:05:58;;;;;;;0.10;0.10;;;;;;;;;;5057740;28;20047;-68
2022/01/30 07:08:37;;;;;;;0.68;0.52;;;;;;;;;;5057372;28;20398;-69
2022/01/30 07:11:04;;;;;;;0.10;0.10;;;;;;;;;;5055740;28;20134;-69
2022/01/30 07:13:30;;;;;;;0.30;0.30;;;;;;;;;;5055744;28;20032;-69
2022/01/30 07:15:56;;;;;;;0.40;0.40;;;;;;;;;;5072104;28;20040;-68
2022/01/30 07:18:22;;;;;;;0.20;0.20;;;;;;;;;;5090490;28;20048;-68
2022/01/30 07:20:48;;;;;;;1.20;0.82;;;;;;;;;;5072173;28;20059;-67
2022/01/30 07:23:13;;;;;;;0.60;0.60;;;;;;;;;;5055516;28;20067;-67
2022/01/30 07:25:40;;;;;;;0.40;0.40;;;;;;;;;;5090244;28;20035;-66
2022/01/30 07:28:05;;;;;;;0.75;0.50;;;;;;;;;;5072372;28;20040;-67
2022/01/30 07:30:31;;;;;;;0.35;0.30;;;;;;;;;;5055783;28;20040;-67
2022/01/30 07:32:56;;;;;;;0.20;0.20;;;;;;;;;;5072010;28;20028;-68
2022/01/30 07:35:22;;;;;;;0.10;0.10;;;;;;;;;;5070014;28;20169;-68
2022/01/30 07:37:47;;;;;;;0.10;0.10;;;;;;;;;;5088354;28;20044;-66
2022/01/30 07:40:13;;;;;;;0.80;0.73;;;;;;;;;;5051952;28;20931;-68
2022/01/30 07:42:39;;;;;;;0.40;0.40;;;;;;;;;;5051586;28;20171;-68
2022/01/30 07:45:05;;;;;;;0.22;0.22;;;;;;;;;;5069597;28;20028;-67
2022/01/30 07:47:30;;;;;;;0.17;0.17;;;;;;;;;;5051969;28;20119;-67
2022/01/30 07:49:56;;;;;;;0.20;0.20;;;;;;;;;;5051341;28;20040;-67
2022/01/30 07:52:22;;;;;;;0.17;0.17;;;;;;;;;;5034892;28;20028;-66
2022/01/30 07:54:48;;;;;;;0.17;0.17;;;;;;;;;;5050151;28;20032;-67
2022/01/30 07:57:14;;;;;;;0.20;0.20;;;;;;;;;;5051410;28;20035;-67
2022/01/30 07:59:40;;;;;;;0.15;0.15;;;;;;;;;;5084750;28;20029;-67
2022/01/30 08:02:06;;;;;;;0.28;0.28;;;;;;;;;;5069279;28;20032;-66
2022/01/30 08:04:31;;;;;;;0.20;0.20;;;;;;;;;;5068935;28;20028;-65
2022/01/30 08:06:57;;;;;;;0.20;0.20;;;;;;;;;;5069487;28;20480;-65
2022/01/30 08:09:22;;;;;;;0.30;0.30;;;;;;;;;;5069572;28;20111;-64
2022/01/30 08:11:48;;;;;;;0.65;0.65;;;;;;;;;;5069457;28;20547;-65
2022/01/30 08:14:13;;;;;;;0.20;0.20;;;;;;;;;;5051492;28;20097;-64
2022/01/30 08:16:39;;;;;;;0.20;0.20;;;;;;;;;;5069062;28;20039;-65
2022/01/30 08:19:05;;;;;;;0.15;0.15;;;;;;;;;;5069254;28;20024;-65
2022/01/30 08:21:31;;;;;;;0.10;0.10;;;;;;;;;;5069249;28;20094;-67
2022/01/30 08:23:56;;;;;;;0.20;0.20;;;;;;;;;;5051283;28;20021;-66
2022/01/30 08:26:22;;;;;;;0.20;0.20;;;;;;;;;;5069442;28;20115;-67
2022/01/30 08:28:47;;;;;;;0.10;0.10;;;;;;;;;;5084332;28;20036;-66
2022/01/30 08:31:13;;;;;;;0.20;0.20;;;;;;;;;;5074166;28;20057;-66
2022/01/30 08:33:39;;;;;;;0.10;0.10;;;;;;;;;;5071083;28;20122;-79
2022/01/30 08:36:04;;;;;;;0.20;0.20;;;;;;;;;;5052095;28;20105;-71
2022/01/30 08:38:30;;;;;;;1.45;1.10;;;;;;;;;;5067830;28;20039;-77
2022/01/30 08:40:55;;;;;;;0.20;0.20;;;;;;;;;;5085563;28;20036;-76
2022/01/30 08:43:21;;;;;;;0.20;0.20;;;;;;;;;;5052037;28;20028;-76
2022/01/30 08:45:51;;;;;;;0.10;0.10;;;;;;;;;;5069082;28;20043;-71
2022/01/30 08:48:16;;;;;;;0.20;0.20;;;;;;;;;;5068795;28;20463;-77
2022/01/30 08:50:42;;;;;;;0.20;0.20;;;;;;;;;;5068763;28;20039;-78
2022/01/30 08:53:08;;;;;;;0.20;0.20;;;;;;;;;;5068923;28;20032;-75
2022/01/30 08:55:33;;;;;;;1.00;1.00;;;;;;;;;;5052244;28;20402;-79
2022/01/30 08:58:00;;;;;;;0.20;0.20;;;;;;;;;;5086543;28;20028;-75
2022/01/30 09:00:25;;;;;;;0.10;0.10;;;;;;;;;;5087315;28;20036;-73
2022/01/30 09:02:51;;;;;;;0.10;0.10;;;;;;;;;;5068587;28;20036;-76
2022/01/30 09:05:17;;;;;;;0.20;0.20;;;;;;;;;;5067407;28;20028;-75
2022/01/30 09:07:42;;;;;;;0.68;0.68;;;;;;;;;;5068329;28;20032;-77
2022/01/30 09:10:10;;;;;;;0.10;0.10;;;;;;;;;;5086997;28;20020;-78
2022/01/30 09:12:36;;;;;;;0.10;0.10;;;;;;;;;;5051539;28;20028;-75
2022/01/30 09:15:05;;;;;;;0.20;0.20;;;;;;;;;;5051563;28;20042;-76
2022/01/30 09:17:32;;;;;;;0.20;0.20;;;;;;;;;;5048518;28;20063;-70
2022/01/30 09:19:57;;;;;;;0.20;0.20;;;;;;;;;;5031590;28;20036;-75
2022/01/30 09:22:23;;;;;;;0.20;0.20;;;;;;;;;;5048969;28;20380;-74
2022/01/30 09:24:49;;;;;;;0.13;0.13;;;;;;;;;;5048589;28;20082;-74
2022/01/30 09:27:15;;;;;;;0.20;0.20;;;;;;;;;;5066174;28;20558;-74
2022/01/30 09:29:44;;;;;;;0.20;0.20;;;;;;;;;;5066481;28;20140;-73
2022/01/30 09:32:09;;;;;;;0.20;0.20;;;;;;;;;;5065238;28;20375;-75
2022/01/30 09:34:36;;;;;;;0.20;0.20;;;;;;;;;;5031555;28;20062;-73
2022/01/30 09:37:01;;;;;;;0.10;0.10;;;;;;;;;;5048516;28;20932;-72
2022/01/30 09:39:28;;;;;;;0.20;0.20;;;;;;;;;;5048351;28;20116;-73
2022/01/30 09:41:53;;;;;;;0.43;0.20;;;;;;;;;;5065690;28;20039;-72
2022/01/30 09:44:20;;;;;;;0.65;0.52;;;;;;;;;;5065638;28;20051;-74
2022/01/30 09:46:46;;;;;;;0.20;0.20;;;;;;;;;;5030483;28;20024;-74
2022/01/30 09:49:12;;;;;;;0.20;0.20;;;;;;;;;;5065898;28;20729;-75
2022/01/30 09:51:38;;;;;;;0.20;0.20;;;;;;;;;;5031616;28;20472;-73
2022/01/30 09:54:04;;;;;;;1.00;0.63;;;;;;;;;;5066480;28;20492;-71
2022/01/30 09:56:30;;;;;;;0.20;0.20;;;;;;;;;;5047799;28;20115;-74
2022/01/30 09:58:55;;;;;;;2.65;1.67;;;;;;;;;;5064637;28;20411;-73
2022/01/30 10:01:21;;;;;;;1.00;1.00;;;;;;;;;;5065624;28;20112;-76
2022/01/30 10:03:49;;;;;;;3.65;0.73;;;;;;;;;;5046587;28;20415;-74
2022/01/30 10:06:20;;;;;;;4.00;1.17;;;;;;;;;;5064809;28;20476;-74
2022/01/30 10:08:48;;;;;;;1.00;1.00;;;;;;;;;;5046420;28;20051;-73
2022/01/30 10:11:27;;;;;;;0.30;0.30;;;;;;;;;;5046709;28;20059;-74
2022/01/30 10:14:11;;;;;;;0.20;0.20;;;;;;;;;;5030912;28;20115;-74
2022/01/30 10:16:42;;;;;;;0.52;0.52;;;;;;;;;;5048171;28;20094;-75
2022/01/30 10:19:08;;;;;;;6.97;6.43;;;;;;;;;;5035483;28;20028;-71
2022/01/30 10:21:34;;;;;;;0.50;0.50;;;;;;;;;;5036755;28;20041;-75
2022/01/30 10:23:59;;;;;;;0.25;0.25;;;;;;;;;;5053011;28;20032;-75
2022/01/30 10:26:31;;;;;;;0.43;0.43;;;;;;;;;;5069799;28;20036;-73
2022/01/30 10:28:57;;;;;;;0.30;0.30;;;;;;;;;;5036532;28;20067;-75
2022/01/30 10:31:24;;;;;;;0.30;0.30;;;;;;;;;;5071199;28;20421;-76
2022/01/30 10:33:51;;;;;;;0.20;0.20;;;;;;;;;;5036557;28;20078;-75
2022/01/30 10:36:23;;;;;;;0.43;0.43;;;;;;;;;;5070965;28;20036;-75
2022/01/30 10:39:06;;;;;;;2.47;1.90;;;;;;;;;;5070922;28;20028;-76
2022/01/30 10:41:36;;;;;;;0.35;0.35;;;;;;;;;;5053521;28;20060;-75
2022/01/30 10:44:03;;;;;;;0.20;0.20;;;;;;;;;;5036078;28;20456;-76
2022/01/30 10:46:33;;;;;;;3.55;2.45;;;;;;;;;;5070734;28;20133;-76
2022/01/30 10:49:00;;;;;;;1.45;1.10;;;;;;;;;;5035911;28;20119;-75
2022/01/30 10:51:26;;;;;;;0.32;0.32;;;;;;;;;;5036352;28;20503;-75
2022/01/30 10:53:52;;;;;;;5.68;4.22;;;;;;;;;;5070532;28;20112;-76
2022/01/30 10:56:28;;;;;;;7.20;4.38;;;;;;;;;;5051631;28;20123;-73
2022/01/30 10:59:06;;;;;;;8.82;4.90;;;;;;;;;;5034271;28;20037;-76
2022/01/30 11:01:32;;;;;;;7.63;4.10;;;;;;;;;;5050667;28;20391;-75
2022/01/30 11:04:00;;;;;;;26.08;4.57;;;;;;;;;;5068578;28;20028;-75
2022/01/30 11:06:29;;;;;;;19.63;8.77;;;;;;;;;;5033726;28;20033;-75
2022/01/30 11:09:04;;;;;;;1.93;1.47;;;;;;;;;;5068619;28;20475;-73
2022/01/30 11:11:38;;;;;;;7.53;2.60;;;;;;;;;;5050495;28;20075;-72
2022/01/30 11:19:19;;;;;;;5.43;1.85;;;;;;;;;;5070481;28;20082;-75
2022/01/30 11:21:48;;;;;;;0.60;0.60;;;;;;;;;;5052705;28;20033;-74
2022/01/30 11:24:14;;;;;;;4.57;3.20;;;;;;;;;;5070283;28;20028;-75
2022/01/30 11:26:42;;;;;;;5.20;2.28;;;;;;;;;;5069945;28;20036;-70
2022/01/30 11:29:11;;;;;;;2.17;0.93;;;;;;;;;;5035476;28;20036;-73
2022/01/30 11:31:36;;;;;;;0.88;0.73;;;;;;;;;;5069778;28;20417;-74
2022/01/30 11:34:02;;;;;;;0.20;0.20;;;;;;;;;;5052223;28;20054;-75
2022/01/30 11:36:28;;;;;;;1.25;0.68;;;;;;;;;;5052158;28;20029;-74
2022/01/30 11:38:54;;;;;;;0.20;0.20;;;;;;;;;;5070035;28;20059;-75
2022/01/30 11:41:20;;;;;;;1.08;0.93;;;;;;;;;;5070236;28;20031;-73
2022/01/30 11:44:09;;;;;;;0.82;0.82;;;;;;;;;;5052410;28;20094;-74
2022/01/30 11:46:34;;;;;;;4.67;2.63;;;;;;;;;;5041504;28;20063;-74
2022/01/30 11:49:10;;;;;;;3.45;1.02;;;;;;;;;;5052057;28;20033;-70
2022/01/30 11:51:54;;;;;;;0.73;0.73;;;;;;;;;;5052394;28;20067;-75
2022/01/30 11:54:38;;;;;;;1.90;1.80;;;;;;;;;;5035147;28;20032;-75
2022/01/30 11:57:23;;;;;;;2.92;0.85;;;;;;;;;;5069834;28;20120;-75
2022/01/30 11:59:50;;;;;;;2.63;1.55;;;;;;;;;;5069773;28;20537;-69
2022/01/30 12:02:25;;;;;;;12.30;2.70;;;;;;;;;;5069772;28;20031;-76
2022/01/30 12:04:54;;;;;;;4.75;1.98;;;;;;;;;;5069186;28;20364;-75
2022/01/30 12:07:33;;;;;;;1.85;1.45;;;;;;;;;;5035289;28;20119;-74
2022/01/30 12:10:17;;;;;;;3.92;2.63;;;;;;;;;;5051629;28;20067;-76
2022/01/30 12:12:47;;;;;;;7.28;3.47;;;;;;;;;;5069268;28;20036;-71
2022/01/30 12:15:12;;;;;;;;;;;;;;;;;;5035118;28;20044;-75
2022/01/30 12:17:50;;;;;;;17.45;5.85;;;;;;;;;;5052234;28;19920;-74
2022/01/30 12:20:17;;;;;;;0.40;0.40;;;;;;;;;;5035039;28;20048;-74
2022/01/30 12:22:43;;;;;;;0.30;0.30;;;;;;;;;;5069320;28;20074;-76
2022/01/30 12:25:21;;;;;;;5.15;2.25;;;;;;;;;;5069351;28;20064;-72
2022/01/30 12:27:48;;;;;;;1.55;1.27;;;;;;;;;;5051226;28;20083;-75
2022/01/30 12:30:33;;;;;;;1.83;1.70;;;;;;;;;;5051189;28;20051;-74
2022/01/30 12:32:59;;;;;;;6.72;2.95;;;;;;;;;;5034767;28;20037;-74
2022/01/30 12:35:25;;;;;;;3.22;3.03;;;;;;;;;;5067794;28;20107;-74
2022/01/30 12:37:51;;;;;;;0.28;0.28;;;;;;;;;;5050865;28;20043;-74
2022/01/30 12:40:18;;;;;;;1.90;1.27;;;;;;;;;;5068079;28;20045;-74
2022/01/30 12:42:45;;;;;;;0.57;0.28;;;;;;;;;;5033964;28;20403;-74
2022/01/30 12:45:14;;;;;;;0.17;0.17;;;;;;;;;;5068768;28;20475;-74
2022/01/30 12:47:47;;;;;;;4.22;2.05;;;;;;;;;;5034219;28;20024;-75
2022/01/30 12:50:13;;;;;;;8.73;5.38;;;;;;;;;;5051000;28;20085;-75
2022/01/30 12:52:39;;;;;;;4.47;2.15;;;;;;;;;;5050774;28;20099;-75
2022/01/30 12:55:12;;;;;;;0.60;0.60;;;;;;;;;;5034329;28;20158;-75
2022/01/30 12:57:40;;;;;;;0.30;0.30;;;;;;;;;;5034350;28;20081;-74
2022/01/30 13:00:07;;;;;;;1.23;0.38;;;;;;;;;;5068752;28;20036;-74
2022/01/30 13:02:34;;;;;;;0.30;0.30;;;;;;;;;;5051075;28;20040;-73
2022/01/30 13:05:00;;;;;;;0.20;0.20;;;;;;;;;;5050960;28;20036;-75
2022/01/30 13:07:26;;;;;;;1.35;1.02;;;;;;;;;;5050854;28;20032;-74
2022/01/30 13:10:11;;;;;;;0.38;0.38;;;;;;;;;;5033580;28;20082;-74
2022/01/30 13:12:37;;;;;;;0.20;0.20;;;;;;;;;;5033989;28;20028;-73
2022/01/30 13:15:06;;;;;;;0.38;0.38;;;;;;;;;;5050666;28;20433;-75
2022/01/30 13:17:32;;;;;;;;;;;;;;;;;;5051220;28;20041;-74
2022/01/30 13:19:58;;;;;;;0.20;0.20;;;;;;;;;;5068695;28;19915;-74
2022/01/30 13:22:25;;;;;;;1.85;1.75;;;;;;;;;;5068447;28;20060;-74
2022/01/30 13:24:55;;;;;;;1.38;1.00;;;;;;;;;;5049634;28;20192;-75
2022/01/30 13:27:22;;;;;;;0.25;0.25;;;;;;;;;;5050401;28;20096;-75
2022/01/30 13:29:47;;;;;;;1.95;0.40;;;;;;;;;;5033762;28;20021;-75
2022/01/30 13:32:13;;;;;;;6.75;6.30;;;;;;;;;;5050655;28;20368;-75
2022/01/30 13:34:39;;;;;;;0.20;0.20;;;;;;;;;;5068123;28;20036;-74
2022/01/30 13:37:10;;;;;;;0.25;0.25;;;;;;;;;;5033510;28;20441;-73
2022/01/30 13:39:42;;;;;;;0.25;0.25;;;;;;;;;;5033701;28;20035;-76
2022/01/30 13:48:04;;;;;;;0.68;0.68;;;;;;;;;;5041448;28;20040;-71
2022/01/30 13:50:38;;;;;;;0.25;0.25;;;;;;;;;;5049462;28;20056;-73
2022/01/30 13:53:06;;;;;;;0.30;0.30;;;;;;;;;;5071058;28;20028;-75
2022/01/30 13:55:32;;;;;;;0.30;0.30;;;;;;;;;;5037112;28;20052;-70
2022/01/30 13:57:58;;;;;;;0.20;0.20;;;;;;;;;;5053456;28;20059;-74
2022/01/30 14:00:26;;;;;;;0.30;0.30;;;;;;;;;;5070404;28;20028;-74
2022/01/30 14:02:56;;;;;;;0.20;0.20;;;;;;;;;;5071277;28;20044;-74
2022/01/30 14:05:22;;;;;;;;;;;;;;;;;;5070425;28;20044;-76
2022/01/30 14:07:48;;;;;;;1.63;1.05;;;;;;;;;;5070250;28;19908;-74
2022/01/30 14:10:13;;;;;;;0.80;0.77;;;;;;;;;;5053592;28;20116;-74
2022/01/30 14:12:40;;;;;;;0.20;0.20;;;;;;;;;;5036503;28;20029;-72
2022/01/30 14:15:08;;;;;;;1.27;1.17;;;;;;;;;;5036576;28;20044;-75
2022/01/30 14:17:33;;;;;;;0.20;0.20;;;;;;;;;;5069717;28;20028;-75
2022/01/30 14:20:07;;;;;;;2.97;1.38;;;;;;;;;;5036743;28;20483;-73
2022/01/30 14:22:34;;;;;;;2.47;1.30;;;;;;;;;;5065733;28;20040;-74
2022/01/30 14:25:03;;;;;;;2.83;1.05;;;;;;;;;;5070333;28;20036;-74
2022/01/30 14:27:33;;;;;;;0.95;0.70;;;;;;;;;;5036582;28;20029;-74
2022/01/30 14:30:01;;;;;;;0.93;0.80;;;;;;;;;;5067897;28;20147;-75
2022/01/30 14:32:34;;;;;;;2.08;1.48;;;;;;;;;;5036316;28;20067;-75
2022/01/30 14:35:00;;;;;;;2.20;1.33;;;;;;;;;;5085852;28;20484;-75
2022/01/30 14:37:27;;;;;;;2.28;1.08;;;;;;;;;;5069112;28;20040;-74
2022/01/30 14:39:57;;;;;;;0.28;0.22;;;;;;;;;;5070687;28;20012;-75
2022/01/30 14:42:23;;;;;;;0.50;0.50;;;;;;;;;;5036085;28;20040;-76
2022/01/30 14:44:48;;;;;;;0.30;0.30;;;;;;;;;;5069755;28;20091;-75
2022/01/30 14:47:14;;;;;;;0.20;0.20;;;;;;;;;;5069675;28;20032;-71
2022/01/30 14:49:41;;;;;;;0.20;0.20;;;;;;;;;;5070682;28;20506;-74
2022/01/30 14:52:07;;;;;;;3.63;3.45;;;;;;;;;;5085422;28;20068;-78
2022/01/30 14:54:33;;;;;;;0.20;0.20;;;;;;;;;;5069349;28;20387;-76
2022/01/30 14:57:01;;;;;;;0.30;0.30;;;;;;;;;;5085530;28;20036;-76
2022/01/30 14:59:27;;;;;;;0.20;0.20;;;;;;;;;;5069263;28;20016;-76
2022/01/30 15:01:52;;;;;;;0.20;0.20;;;;;;;;;;5051339;28;20043;-76
2022/01/30 15:04:17;;;;;;;0.10;0.10;;;;;;;;;;5069848;28;20033;-76
2022/01/30 15:06:43;;;;;;;0.20;0.20;;;;;;;;;;5069804;28;20075;-77
2022/01/30 15:09:09;;;;;;;0.20;0.20;;;;;;;;;;5070278;28;20051;-76
2022/01/30 15:11:34;;;;;;;0.20;0.20;;;;;;;;;;5052047;28;20025;-75
2022/01/30 15:14:00;;;;;;;0.20;0.20;;;;;;;;;;5035756;28;20028;-75
2022/01/30 15:16:40;;;;;;;0.20;0.20;;;;;;;;;;5050928;28;20384;-74
2022/01/30 15:19:07;;;;;;;0.20;0.20;;;;;;;;;;5050237;28;20036;-75
2022/01/30 15:21:32;;;;;;;0.20;0.20;;;;;;;;;;5061361;28;20021;-77
2022/01/30 15:23:58;;;;;;;0.57;0.57;;;;;;;;;;5013891;28;20078;-76
2022/01/30 15:26:23;;;;;;;0.20;0.20;;;;;;;;;;5029949;28;20068;-75
2022/01/30 15:28:51;;;;;;;0.25;0.25;;;;;;;;;;5029969;28;20047;-74
2022/01/30 15:31:17;;;;;;;0.20;0.20;;;;;;;;;;5014361;28;20021;-75
2022/01/30 15:33:42;;;;;;;0.15;0.15;;;;;;;;;;5032050;28;20029;-76
2022/01/30 15:36:08;;;;;;;0.17;0.17;;;;;;;;;;5031763;28;20052;-75
2022/01/30 15:38:34;;;;;;;0.20;0.20;;;;;;;;;;5032243;28;20582;-76
2022/01/30 15:40:59;;;;;;;0.20;0.20;;;;;;;;;;5031464;28;20528;-73
2022/01/30 15:43:26;;;;;;;0.20;0.20;;;;;;;;;;5050006;28;20131;-76
2022/01/30 15:51:20;;;;;;;0.20;0.20;;;;;;;;;;5049696;28;20029;-76
2022/01/30 15:53:45;;;;;;;0.20;0.20;;;;;;;;;;5031882;28;20032;-71
2022/01/30 15:56:11;;;;;;;0.20;0.20;;;;;;;;;;5015334;28;20047;-76
2022/01/30 15:58:36;;;;;;;0.13;0.13;;;;;;;;;;5030915;28;20033;-74
2022/01/30 16:01:03;;;;;;;0.20;0.20;;;;;;;;;;5050719;28;20028;-74
2022/01/30 16:03:29;;;;;;;0.30;0.30;;;;;;;;;;5051451;28;20055;-72
2022/01/30 16:05:55;;;;;;;0.20;0.20;;;;;;;;;;5051477;28;20028;-75
2022/01/30 16:08:21;;;;;;;0.28;0.28;;;;;;;;;;5050822;28;20032;-74
2022/01/30 16:11:03;;;;;;;0.40;0.40;;;;;;;;;;5051022;28;20028;-76
2022/01/30 16:16:13;;;;;;;0.20;0.20;;;;;;;;;;5068016;28;20025;-75